createdAt,value
2023-01-25T00:00:51.598Z,-0.30
2023-01-25T00:03:29.705Z,-0.10
2023-01-25T00:06:01.531Z,-0.40
2023-01-25T00:08:28.664Z,-0.40
2023-01-25T00:10:58.421Z,-0.40
2023-01-25T00:13:26.275Z,-0.40
2023-01-25T00:15:53.863Z,-0.40
2023-01-25T00:18:21.387Z,-0.40
2023-01-25T00:20:48.657Z,-0.40
2023-01-25T00:23:15.734Z,-0.40
2023-01-25T00:25:43.080Z,-0.40
2023-01-25T00:28:10.165Z,-0.50
2023-01-25T00:30:37.658Z,-0.50
2023-01-25T00:33:46.001Z,-0.50
2023-01-25T00:36:38.890Z,-0.50
2023-01-25T00:39:07.300Z,-0.60
2023-01-25T00:41:34.537Z,-0.50
2023-01-25T00:44:01.651Z,-0.60
2023-01-25T00:46:29.265Z,-0.60
2023-01-25T00:48:56.362Z,-0.50
2023-01-25T00:51:24.668Z,-0.60
2023-01-25T00:53:52.124Z,-0.60
2023-01-25T00:56:19.650Z,-0.60
2023-01-25T00:58:46.868Z,-0.70
2023-01-25T01:01:14.387Z,-0.70
2023-01-25T01:03:41.353Z,-0.70
2023-01-25T01:06:11.589Z,-0.70
2023-01-25T01:08:42.624Z,-0.60
2023-01-25T01:11:12.461Z,-0.70
2023-01-25T01:13:40.326Z,-0.70
2023-01-25T01:16:11.337Z,-0.70
2023-01-25T01:18:41.149Z,-0.70
2023-01-25T01:21:09.201Z,-0.70
2023-01-25T01:23:36.744Z,-0.70
2023-01-25T01:26:05.768Z,-0.70
2023-01-25T01:28:34.232Z,-0.60
2023-01-25T01:31:03.241Z,-0.70
2023-01-25T01:33:30.402Z,-0.70
2023-01-25T01:35:58.147Z,-0.70
2023-01-25T01:38:25.154Z,-0.40
2023-01-25T01:40:52.672Z,-0.60
2023-01-25T01:43:22.571Z,-0.70
2023-01-25T01:45:52.416Z,-0.60
2023-01-25T01:48:25.415Z,-0.60
2023-01-25T01:50:56.797Z,-0.70
2023-01-25T01:53:26.052Z,-0.70
2023-01-25T01:55:56.971Z,-0.70
2023-01-25T01:58:24.484Z,-0.70
2023-01-25T02:00:51.748Z,-0.70
2023-01-25T02:03:19.754Z,-0.50
2023-01-25T02:05:51.224Z,-0.70
2023-01-25T02:08:19.684Z,-0.70
2023-01-25T02:10:48.283Z,-0.70
2023-01-25T02:13:15.613Z,-0.70
2023-01-25T02:15:46.547Z,-0.70
2023-01-25T02:18:14.407Z,-0.70
2023-01-25T02:20:51.680Z,-0.70
2023-01-25T02:23:30.834Z,-0.70
2023-01-25T02:26:01.482Z,-0.70
2023-01-25T02:28:34.391Z,-0.70
2023-01-25T02:31:02.066Z,-0.70
2023-01-25T02:33:29.267Z,-0.80
2023-01-25T02:36:13.835Z,-0.70
2023-01-25T02:38:53.431Z,-0.70
2023-01-25T02:41:41.344Z,-0.70
2023-01-25T02:44:12.933Z,-0.70
2023-01-25T02:46:41.542Z,-0.60
2023-01-25T02:49:10.091Z,-0.70
2023-01-25T02:51:40.418Z,-0.70
2023-01-25T02:54:10.158Z,-0.70
2023-01-25T02:56:38.379Z,-0.70
2023-01-25T02:59:05.855Z,-0.70
2023-01-25T03:01:38.832Z,-0.80
2023-01-25T03:04:06.272Z,-0.80
2023-01-25T03:06:34.449Z,-0.80
2023-01-25T03:09:02.579Z,-0.80
2023-01-25T03:11:29.809Z,-0.80
2023-01-25T03:13:56.807Z,-0.90
2023-01-25T03:16:24.404Z,-0.80
2023-01-25T03:18:54.817Z,-0.90
2023-01-25T03:21:23.447Z,-0.90
2023-01-25T03:23:56.703Z,-0.90
2023-01-25T03:26:25.197Z,-0.90
2023-01-25T03:28:52.180Z,-0.80
2023-01-25T03:31:19.835Z,-1.00
2023-01-25T03:33:46.993Z,-1.00
2023-01-25T03:36:14.289Z,-1.00
2023-01-25T03:38:41.260Z,-1.00
2023-01-25T03:41:09.209Z,-1.10
2023-01-25T03:43:36.291Z,-1.10
2023-01-25T03:46:03.939Z,-1.20
2023-01-25T03:48:31.725Z,-1.20
2023-01-25T03:50:59.850Z,-1.20
2023-01-25T03:53:29.749Z,-1.20
2023-01-25T03:56:03.472Z,-1.30
2023-01-25T03:58:31.695Z,-1.30
2023-01-25T04:01:00.875Z,-1.30
2023-01-25T04:03:30.328Z,-1.30
2023-01-25T04:05:58.901Z,-1.20
2023-01-25T04:08:26.540Z,-1.20
2023-01-25T04:11:01.309Z,-1.20
2023-01-25T04:13:29.084Z,-1.20
2023-01-25T04:15:56.791Z,-1.20
2023-01-25T04:18:23.755Z,-1.20
2023-01-25T04:20:54.680Z,-1.10
2023-01-25T04:23:22.466Z,-1.10
2023-01-25T04:25:57.778Z,-1.10
2023-01-25T04:28:25.319Z,-1.10
2023-01-25T04:30:54.744Z,-1.10
2023-01-25T04:33:22.125Z,-1.00
2023-01-25T04:35:49.743Z,-1.00
2023-01-25T04:38:17.521Z,-1.00
2023-01-25T04:40:45.570Z,-1.00
2023-01-25T04:43:14.621Z,-1.00
2023-01-25T04:45:42.309Z,-1.00
2023-01-25T04:48:11.116Z,-1.10
2023-01-25T04:50:39.945Z,-1.00
2023-01-25T04:53:08.254Z,-1.00
2023-01-25T04:55:35.636Z,-1.10
2023-01-25T04:58:03.985Z,-1.00
2023-01-25T05:00:32.387Z,-1.10
2023-01-25T05:02:59.583Z,-1.00
2023-01-25T05:05:27.201Z,-1.00
2023-01-25T05:07:54.162Z,-1.00
2023-01-25T05:10:21.677Z,-1.00
2023-01-25T05:12:48.679Z,-1.00
2023-01-25T05:15:16.061Z,-1.00
2023-01-25T05:17:43.099Z,-1.00
2023-01-25T05:20:11.240Z,-1.00
2023-01-25T05:22:38.219Z,-1.00
2023-01-25T05:25:25.862Z,-1.00
2023-01-25T05:27:52.876Z,-1.00
2023-01-25T05:30:20.272Z,-1.00
2023-01-25T05:32:49.172Z,-1.00
2023-01-25T05:35:16.852Z,-1.00
2023-01-25T05:37:43.814Z,-1.00
2023-01-25T05:40:11.548Z,-1.00
2023-01-25T05:42:40.159Z,-1.00
2023-01-25T05:45:08.926Z,-0.90
2023-01-25T05:47:36.182Z,-1.00
2023-01-25T05:50:04.112Z,-1.00
2023-01-25T05:52:31.178Z,-1.00
2023-01-25T05:54:58.570Z,-1.00
2023-01-25T05:57:25.650Z,-1.00
2023-01-25T05:59:52.910Z,-1.00
2023-01-25T06:02:19.997Z,-1.10
2023-01-25T06:04:47.448Z,-1.10
2023-01-25T06:07:14.452Z,-1.00
2023-01-25T06:09:41.726Z,-1.10
2023-01-25T06:12:10.718Z,-1.10
2023-01-25T06:14:38.044Z,-1.00
2023-01-25T06:17:05.274Z,-1.10
2023-01-25T06:19:32.576Z,-1.10
2023-01-25T06:21:59.600Z,-1.10
2023-01-25T06:24:26.965Z,-1.10
2023-01-25T06:26:54.096Z,-1.10
2023-01-25T06:29:21.308Z,-1.10
2023-01-25T06:31:48.372Z,-1.10
2023-01-25T06:34:17.059Z,-1.10
2023-01-25T06:36:44.111Z,-1.00
2023-01-25T06:39:11.514Z,-1.10
2023-01-25T06:41:38.465Z,-1.00
2023-01-25T06:44:05.861Z,-1.00
2023-01-25T06:46:33.883Z,-1.00
2023-01-25T06:49:01.235Z,-1.00
2023-01-25T06:51:29.283Z,-1.00
2023-01-25T06:53:56.663Z,-1.00
2023-01-25T06:56:24.002Z,-0.90
2023-01-25T06:58:51.299Z,-0.90
2023-01-25T07:01:27.066Z,-0.90
2023-01-25T07:03:57.208Z,-0.80
2023-01-25T07:06:25.563Z,-0.80
2023-01-25T07:08:53.188Z,-0.80
2023-01-25T07:11:20.319Z,-0.90
2023-01-25T07:13:48.707Z,-0.90
2023-01-25T07:16:18.748Z,-0.90
2023-01-25T07:18:46.502Z,-0.90
2023-01-25T07:21:20.440Z,-0.90
2023-01-25T07:23:49.340Z,-0.90
2023-01-25T07:26:20.594Z,-0.80
2023-01-25T07:28:49.088Z,-0.80
2023-01-25T07:31:17.043Z,-0.80
2023-01-25T07:33:48.275Z,-0.80
2023-01-25T07:36:15.485Z,-0.70
2023-01-25T07:38:43.021Z,-0.70
2023-01-25T07:41:10.972Z,-0.70
2023-01-25T07:43:38.466Z,-0.70
2023-01-25T07:46:08.272Z,-0.70
2023-01-25T07:48:35.499Z,-0.60
2023-01-25T07:51:23.682Z,-0.60
2023-01-25T07:53:59.339Z,-0.60
2023-01-25T07:56:28.915Z,-0.60
2023-01-25T07:58:57.375Z,-0.50
2023-01-25T08:01:27.149Z,0.00
2023-01-25T08:03:58.928Z,-0.50
2023-01-25T08:06:30.867Z,-0.20
2023-01-25T08:08:59.663Z,-0.40
2023-01-25T08:11:28.910Z,-0.50
2023-01-25T08:13:56.887Z,-0.40
2023-01-25T08:16:26.597Z,-0.50
2023-01-25T08:18:56.861Z,-0.50
2023-01-25T08:21:29.093Z,-0.40
2023-01-25T08:24:02.118Z,-0.50
2023-01-25T08:26:29.433Z,-0.50
2023-01-25T08:28:56.704Z,-0.50
2023-01-25T08:31:27.297Z,-0.40
2023-01-25T08:33:55.297Z,-0.40
2023-01-25T08:36:24.374Z,-0.40
2023-01-25T08:39:00.622Z,-0.30
2023-01-25T08:41:29.410Z,-0.20
2023-01-25T08:43:57.269Z,-0.30
2023-01-25T08:46:28.629Z,-0.30
2023-01-25T08:48:58.400Z,-0.20
2023-01-25T08:51:26.343Z,-0.10
2023-01-25T08:53:54.034Z,-0.20
2023-01-25T08:56:21.441Z,-0.20
2023-01-25T08:58:49.932Z,-0.20
2023-01-25T09:01:19.121Z,-0.20
2023-01-25T09:03:48.999Z,-0.20
2023-01-25T09:06:17.133Z,-0.10
2023-01-25T09:08:44.623Z,-0.10
2023-01-25T09:11:15.300Z,-0.10
2023-01-25T09:13:43.884Z,-0.20
2023-01-25T09:16:13.947Z,-0.20
2023-01-25T09:18:43.383Z,-0.10
2023-01-25T09:21:16.377Z,0.10
2023-01-25T09:24:05.352Z,-0.10
2023-01-25T09:26:35.906Z,-0.10
2023-01-25T09:29:03.859Z,0.00
2023-01-25T09:31:31.121Z,0.00
2023-01-25T09:33:58.646Z,0.00
2023-01-25T09:36:25.799Z,0.10
2023-01-25T09:38:53.686Z,0.10
2023-01-25T09:41:21.166Z,0.10
2023-01-25T09:44:19.135Z,0.10
2023-01-25T09:46:49.947Z,0.10
2023-01-25T09:49:20.138Z,0.10
2023-01-25T09:52:06.507Z,0.00
2023-01-25T09:54:47.093Z,0.00
2023-01-25T09:57:34.617Z,0.00
2023-01-25T10:00:15.227Z,0.00
2023-01-25T10:03:08.359Z,0.00
2023-01-25T10:05:48.206Z,0.10
2023-01-25T10:08:32.716Z,0.00
2023-01-25T10:11:21.716Z,0.00
2023-01-25T10:13:49.308Z,0.00
2023-01-25T10:16:35.406Z,0.10
2023-01-25T10:19:34.466Z,0.10
2023-01-25T10:22:17.256Z,0.00
2023-01-25T10:25:17.328Z,0.00
2023-01-25T10:28:32.815Z,0.00
2023-01-25T10:31:04.953Z,0.00
2023-01-25T10:33:38.720Z,0.20
2023-01-25T10:36:07.182Z,0.10
2023-01-25T10:38:42.441Z,0.00
2023-01-25T10:41:27.040Z,0.00
2023-01-25T10:44:13.130Z,0.00
2023-01-25T10:46:56.746Z,0.10
2023-01-25T10:49:32.584Z,0.10
2023-01-25T10:52:12.510Z,0.20
2023-01-25T10:54:40.005Z,0.20
2023-01-25T10:57:10.025Z,0.20
2023-01-25T10:59:37.813Z,0.20
2023-01-25T11:02:35.824Z,0.20
2023-01-25T11:05:18.551Z,0.20
2023-01-25T11:07:47.105Z,0.30
2023-01-25T11:10:42.039Z,0.30
2023-01-25T11:13:32.751Z,0.30
2023-01-25T11:16:00.233Z,0.30
2023-01-25T11:18:34.037Z,0.30
2023-01-25T11:21:19.912Z,0.30
2023-01-25T11:24:01.919Z,0.30
2023-01-25T11:26:32.847Z,0.30
2023-01-25T11:29:16.519Z,0.30
2023-01-25T11:31:54.922Z,0.40
2023-01-25T11:34:26.534Z,0.40
2023-01-25T11:36:57.065Z,0.50
2023-01-25T11:39:58.213Z,0.50
2023-01-25T11:42:31.467Z,0.50
2023-01-25T11:45:19.888Z,0.50
2023-01-25T11:47:54.961Z,0.60
2023-01-25T11:50:36.227Z,0.80
2023-01-25T11:53:21.816Z,0.60
2023-01-25T11:55:48.885Z,0.60
2023-01-25T11:58:36.465Z,0.60
2023-01-25T12:01:33.068Z,0.70
2023-01-25T12:04:00.712Z,0.80
2023-01-25T12:06:55.827Z,0.80
2023-01-25T12:09:49.226Z,0.80
2023-01-25T12:12:42.058Z,0.90
2023-01-25T12:15:30.620Z,0.90
2023-01-25T12:18:00.651Z,0.90
2023-01-25T12:20:52.068Z,0.90
2023-01-25T12:23:34.111Z,1.00
2023-01-25T12:26:30.314Z,0.90
2023-01-25T12:28:57.217Z,0.90
2023-01-25T12:31:37.499Z,0.90
2023-01-25T12:34:13.214Z,0.90
2023-01-25T12:36:46.385Z,0.90
2023-01-25T12:39:13.438Z,0.90
2023-01-25T12:41:46.625Z,0.90
2023-01-25T12:44:37.220Z,0.90
2023-01-25T12:47:28.335Z,0.80
2023-01-25T12:50:02.465Z,0.80
2023-01-25T12:52:40.652Z,0.80
2023-01-25T12:55:14.957Z,0.80
2023-01-25T12:57:55.443Z,0.80
2023-01-25T13:00:56.033Z,0.80
2023-01-25T13:03:38.416Z,0.80
2023-01-25T13:06:42.993Z,0.80
2023-01-25T13:09:13.414Z,0.80
2023-01-25T13:11:42.960Z,0.70
2023-01-25T13:14:16.332Z,0.60
2023-01-25T13:17:01.436Z,0.70
2023-01-25T13:19:36.500Z,0.70
2023-01-25T13:22:04.491Z,0.70
2023-01-25T13:24:33.750Z,0.60
2023-01-25T13:27:23.416Z,0.60
2023-01-25T13:30:15.980Z,0.60
2023-01-25T13:32:52.193Z,0.60
2023-01-25T13:35:31.536Z,0.60
2023-01-25T13:38:25.318Z,0.60
2023-01-25T13:41:10.735Z,0.60
2023-01-25T13:43:42.808Z,0.60
2023-01-25T13:46:13.692Z,0.60
2023-01-25T13:48:57.490Z,0.60
2023-01-25T13:51:27.705Z,0.60
2023-01-25T13:53:59.739Z,0.50
2023-01-25T13:56:30.657Z,0.50
2023-01-25T13:58:57.960Z,0.70
2023-01-25T14:01:26.249Z,0.50
2023-01-25T14:03:59.582Z,0.50
2023-01-25T14:06:31.380Z,0.50
2023-01-25T14:09:07.575Z,0.50
2023-01-25T14:11:42.903Z,0.50
2023-01-25T14:14:21.324Z,0.50
2023-01-25T14:17:02.791Z,0.50
2023-01-25T14:19:31.353Z,0.40
2023-01-25T14:22:20.011Z,0.40
2023-01-25T14:25:07.284Z,0.50
2023-01-25T14:27:37.467Z,0.40
2023-01-25T14:30:05.997Z,0.40
2023-01-25T14:32:33.928Z,0.40
2023-01-25T14:35:42.392Z,0.40
2023-01-25T14:38:36.114Z,0.40
2023-01-25T14:41:14.085Z,0.30
2023-01-25T14:43:43.644Z,0.30
2023-01-25T14:46:29.606Z,0.30
2023-01-25T14:49:13.232Z,0.30
2023-01-25T14:51:50.643Z,0.30
2023-01-25T14:54:30.414Z,0.30
2023-01-25T14:57:03.729Z,0.30
2023-01-25T14:59:41.783Z,0.20
2023-01-25T15:02:38.274Z,0.30
2023-01-25T15:05:20.604Z,0.30
2023-01-25T15:07:53.624Z,0.30
2023-01-25T15:10:31.204Z,0.30
2023-01-25T15:13:14.004Z,0.30
2023-01-25T15:16:03.586Z,0.20
2023-01-25T15:18:50.661Z,0.30
2023-01-25T15:21:25.720Z,0.20
2023-01-25T15:23:54.355Z,0.20
2023-01-25T15:26:26.013Z,0.20
2023-01-25T15:28:56.455Z,0.20
2023-01-25T15:31:30.773Z,0.20
2023-01-25T15:33:58.879Z,0.20
2023-01-25T15:36:26.425Z,0.20
2023-01-25T15:38:54.156Z,0.20
2023-01-25T15:41:21.454Z,0.40
2023-01-25T15:43:48.987Z,0.20
2023-01-25T15:46:19.876Z,0.20
2023-01-25T15:48:48.324Z,0.20
2023-01-25T15:51:15.980Z,0.20
2023-01-25T15:53:43.146Z,0.20
2023-01-25T15:56:20.937Z,0.20
2023-01-25T15:58:53.512Z,0.20
2023-01-25T16:01:22.327Z,0.20
2023-01-25T16:03:49.358Z,0.20
2023-01-25T16:06:25.937Z,0.20
2023-01-25T16:08:53.067Z,0.20
2023-01-25T16:11:20.519Z,0.20
2023-01-25T16:13:48.044Z,0.30
2023-01-25T16:16:23.825Z,0.20
2023-01-25T16:18:51.321Z,0.30
2023-01-25T16:21:18.876Z,0.20
2023-01-25T16:23:45.921Z,0.20
2023-01-25T16:26:23.494Z,0.20
2023-01-25T16:28:50.469Z,0.20
2023-01-25T16:31:31.350Z,0.20
2023-01-25T16:34:00.421Z,0.20
2023-01-25T16:36:28.781Z,0.20
2023-01-25T16:38:55.831Z,0.20
2023-01-25T16:41:23.374Z,0.20
2023-01-25T16:43:51.672Z,0.20
2023-01-25T16:46:22.388Z,0.10
2023-01-25T16:48:52.427Z,0.20
2023-01-25T16:51:28.533Z,0.20
2023-01-25T16:53:58.062Z,0.20
2023-01-25T16:56:27.725Z,0.20
2023-01-25T16:58:56.645Z,0.20
2023-01-25T17:01:25.278Z,0.20
2023-01-25T17:03:52.453Z,0.30
2023-01-25T17:06:23.114Z,0.20
2023-01-25T17:08:50.676Z,0.30
2023-01-25T17:11:24.492Z,0.30
2023-01-25T17:13:53.798Z,0.20
2023-01-25T17:16:23.185Z,0.20
2023-01-25T17:18:58.731Z,0.10
2023-01-25T17:21:27.171Z,0.20
2023-01-25T17:23:55.725Z,0.20
2023-01-25T17:26:24.354Z,0.20
2023-01-25T17:28:52.333Z,0.20
2023-01-25T17:31:23.074Z,0.40
2023-01-25T17:33:50.554Z,0.20
2023-01-25T17:36:18.238Z,0.10
2023-01-25T17:38:45.529Z,0.20
2023-01-25T17:41:14.530Z,0.20
2023-01-25T17:43:42.063Z,0.20
2023-01-25T17:46:22.686Z,0.20
2023-01-25T17:48:49.740Z,0.20
2023-01-25T17:51:17.327Z,0.20
2023-01-25T17:53:44.309Z,0.20
2023-01-25T17:56:13.180Z,0.20
2023-01-25T17:58:41.537Z,0.20
2023-01-25T18:01:16.240Z,0.20
2023-01-25T18:03:44.207Z,0.20
2023-01-25T18:06:14.797Z,0.20
2023-01-25T18:08:44.733Z,0.20
2023-01-25T18:11:15.401Z,0.20
2023-01-25T18:13:44.255Z,0.20
2023-01-25T18:16:13.092Z,0.20
2023-01-25T18:18:41.819Z,0.20
2023-01-25T18:21:22.194Z,0.30
2023-01-25T18:23:49.342Z,0.20
2023-01-25T18:26:19.541Z,0.20
2023-01-25T18:28:47.107Z,0.30
2023-01-25T18:31:18.125Z,0.20
2023-01-25T18:33:45.443Z,0.20
2023-01-25T18:36:17.480Z,0.20
2023-01-25T18:38:44.801Z,0.20
2023-01-25T18:41:12.855Z,0.20
2023-01-25T18:43:39.821Z,0.20
2023-01-25T18:46:07.541Z,0.30
2023-01-25T18:48:36.270Z,0.20
2023-01-25T18:51:11.271Z,0.20
2023-01-25T18:53:40.184Z,0.20
2023-01-25T18:56:17.921Z,0.20
2023-01-25T18:58:45.438Z,0.20
2023-01-25T19:01:20.923Z,0.20
2023-01-25T19:03:49.692Z,0.20
2023-01-25T19:06:18.642Z,0.20
2023-01-25T19:08:49.760Z,0.30
2023-01-25T19:11:20.161Z,0.20
2023-01-25T19:13:47.941Z,0.30
2023-01-25T19:16:20.399Z,0.20
2023-01-25T19:18:50.170Z,0.30
2023-01-25T19:21:22.768Z,0.20
2023-01-25T19:23:49.972Z,0.20
2023-01-25T19:26:19.536Z,0.10
2023-01-25T19:28:47.247Z,0.20
2023-01-25T19:31:17.651Z,0.20
2023-01-25T19:33:45.281Z,0.20
2023-01-25T19:36:16.723Z,0.20
2023-01-25T19:38:46.437Z,0.30
2023-01-25T19:41:17.392Z,0.30
2023-01-25T19:43:44.516Z,0.20
2023-01-25T19:46:16.076Z,0.20
2023-01-25T19:48:45.136Z,0.20
2023-01-25T19:51:12.491Z,0.40
2023-01-25T19:53:40.850Z,0.20
2023-01-25T19:56:09.410Z,0.20
2023-01-25T19:58:36.499Z,0.40
2023-01-25T20:01:15.665Z,0.30
2023-01-25T20:03:43.397Z,0.30
2023-01-25T20:06:12.869Z,0.30
2023-01-25T20:08:42.619Z,0.30
2023-01-25T20:11:15.529Z,0.30
2023-01-25T20:13:43.472Z,0.30
2023-01-25T20:16:11.930Z,0.30
2023-01-25T20:18:39.699Z,0.30
2023-01-25T20:21:10.600Z,0.30
2023-01-25T20:23:40.229Z,0.30
2023-01-25T20:26:13.706Z,0.30
2023-01-25T20:28:41.044Z,0.30
2023-01-25T20:31:34.320Z,0.30
2023-01-25T20:34:12.833Z,0.30
2023-01-25T20:36:41.112Z,0.30
2023-01-25T20:39:09.305Z,0.30
2023-01-25T20:41:36.629Z,0.40
2023-01-25T20:44:08.296Z,0.30
2023-01-25T20:46:39.890Z,0.30
2023-01-25T20:49:09.071Z,0.30
2023-01-25T20:51:36.636Z,0.30
2023-01-25T20:54:03.904Z,0.30
2023-01-25T20:56:31.796Z,0.30
2023-01-25T20:58:59.143Z,0.30
2023-01-25T21:01:36.559Z,0.30
2023-01-25T21:04:05.919Z,0.30
2023-01-25T21:06:35.205Z,0.40
2023-01-25T21:09:03.875Z,0.40
2023-01-25T21:11:31.860Z,0.40
2023-01-25T21:13:59.568Z,0.40
2023-01-25T21:16:27.517Z,0.40
2023-01-25T21:18:57.660Z,0.40
2023-01-25T21:21:28.385Z,0.40
2023-01-25T21:23:58.938Z,0.40
2023-01-25T21:26:32.602Z,0.40
2023-01-25T21:29:00.783Z,0.40
2023-01-25T21:31:32.725Z,0.30
2023-01-25T21:34:00.632Z,0.40
2023-01-25T21:36:28.515Z,0.40
2023-01-25T21:38:56.161Z,0.40
2023-01-25T21:41:29.612Z,0.40
2023-01-25T21:44:17.404Z,0.40
2023-01-25T21:47:04.174Z,0.40
2023-01-25T21:49:51.632Z,0.40
2023-01-25T21:52:19.213Z,0.40
2023-01-25T21:54:46.222Z,0.50
2023-01-25T21:57:13.830Z,0.40
2023-01-25T21:59:40.994Z,0.50
2023-01-25T22:02:16.033Z,0.40
2023-01-25T22:04:43.382Z,0.40
2023-01-25T22:07:11.832Z,0.40
2023-01-25T22:09:38.892Z,0.60
2023-01-25T22:12:06.569Z,0.40
2023-01-25T22:14:34.776Z,0.50
2023-01-25T22:17:03.204Z,0.50
2023-01-25T22:19:30.213Z,0.40
2023-01-25T22:21:57.580Z,0.50
2023-01-25T22:24:24.592Z,0.60
2023-01-25T22:27:03.617Z,0.40
2023-01-25T22:29:32.710Z,0.40
2023-01-25T22:32:00.295Z,0.40
2023-01-25T22:34:27.307Z,0.40
2023-01-25T22:36:54.674Z,0.40
2023-01-25T22:39:21.783Z,0.40
2023-01-25T22:41:49.059Z,0.40
2023-01-25T22:44:16.631Z,0.40
2023-01-25T22:46:43.922Z,0.40
2023-01-25T22:49:10.906Z,0.40
2023-01-25T22:51:38.186Z,0.40
2023-01-25T22:54:05.306Z,0.40
2023-01-25T22:56:33.697Z,0.40
2023-01-25T22:59:01.312Z,0.40
2023-01-25T23:01:31.503Z,0.40
2023-01-25T23:03:59.365Z,0.40
2023-01-25T23:06:34.221Z,0.40
2023-01-25T23:09:04.226Z,0.50
2023-01-25T23:11:37.615Z,0.50
2023-01-25T23:14:29.964Z,0.50
2023-01-25T23:17:17.269Z,0.40
2023-01-25T23:19:44.424Z,0.40
2023-01-25T23:22:12.373Z,0.40
2023-01-25T23:24:39.447Z,0.40
2023-01-25T23:27:06.990Z,0.40
2023-01-25T23:29:34.002Z,0.40
2023-01-25T23:32:01.345Z,0.30
2023-01-25T23:34:28.377Z,0.30
2023-01-25T23:36:55.758Z,0.30
2023-01-25T23:39:23.751Z,0.30
2023-01-25T23:41:52.425Z,0.30
2023-01-25T23:44:19.484Z,0.30
2023-01-25T23:46:46.840Z,0.30
2023-01-25T23:49:14.165Z,0.40
2023-01-25T23:51:41.519Z,0.40
2023-01-25T23:54:08.578Z,0.30
2023-01-25T23:56:35.871Z,0.30
2023-01-25T23:59:03.037Z,0.30
